Terminal Aerodrome Forecast
Issued by NWS

Home | Current Version | Previous Version | Text Only | Print | Product List | Glossary On
Versions: 1 2 3 4 5 6 7 8 9 10 11 12 13 14 15 16 17 18 19
000
FTUS44 KHGX 261141
TAFUTS
TAF
KUTS 261141Z 2612/2712 16006KT P6SM FEW040 OVC045
     FM261700 14012KT P6SM VCSH SCT015 BKN025
     FM262300 15006KT P6SM SCT007 BKN015
     FM270300 14007KT 5SM BR BKN010=

USA.gov is the U.S. government's official web portal to all federal, state and local government web resources and services.